createdAt,value
2022-09-14T00:03:41.609Z,53.3
2022-09-14T00:08:41.619Z,53
2022-09-14T00:13:41.611Z,52.8
2022-09-14T00:18:41.624Z,52.7
2022-09-14T00:23:41.617Z,52.6
2022-09-14T00:28:41.630Z,52.6
2022-09-14T00:33:41.618Z,52.5
2022-09-14T00:38:41.637Z,52.4
2022-09-14T00:43:41.604Z,52.3
2022-09-14T00:48:41.636Z,52.3
2022-09-14T00:53:41.693Z,52.3
2022-09-14T00:58:41.624Z,52.2
2022-09-14T01:03:41.649Z,52.2
2022-09-14T01:08:41.661Z,52.3
2022-09-14T01:13:41.643Z,52.3
2022-09-14T01:18:41.633Z,52.3
2022-09-14T01:23:41.674Z,52.5
2022-09-14T01:28:41.638Z,50.6
2022-09-14T01:33:41.652Z,52.3
2022-09-14T01:38:41.665Z,52.3
2022-09-14T01:43:41.668Z,52.5
2022-09-14T01:48:41.611Z,52.6
2022-09-14T01:53:41.697Z,52.7
2022-09-14T01:58:41.687Z,52.9
2022-09-14T02:03:41.651Z,53
2022-09-14T02:08:41.664Z,53.3
2022-09-14T02:13:41.662Z,53.6
2022-09-14T02:18:41.635Z,53.6
2022-09-14T02:23:41.663Z,53.7
2022-09-14T02:28:41.670Z,53.7
2022-09-14T02:33:41.680Z,53.9
2022-09-14T02:38:41.692Z,53.9
2022-09-14T02:43:41.677Z,53.9
2022-09-14T02:48:41.663Z,54
2022-09-14T02:53:41.723Z,54
2022-09-14T02:58:41.683Z,54.1
2022-09-14T03:03:41.675Z,54.1
2022-09-14T03:08:41.678Z,54.2
2022-09-14T03:13:41.642Z,54.2
2022-09-14T03:18:41.697Z,54.1
2022-09-14T03:23:41.692Z,54.1
2022-09-14T03:28:41.688Z,54.1
2022-09-14T03:33:41.655Z,54.1
2022-09-14T03:38:41.673Z,54.1
2022-09-14T03:43:41.709Z,54.2
2022-09-14T03:48:41.691Z,54
2022-09-14T03:53:41.739Z,53.8
2022-09-14T03:58:41.729Z,53.9
2022-09-14T04:03:41.695Z,53.9
2022-09-14T04:08:41.710Z,53.8
2022-09-14T04:13:41.697Z,54
2022-09-14T04:18:41.697Z,54.1
2022-09-14T04:24:03.284Z,54
2022-09-14T04:28:41.711Z,54.1
2022-09-14T04:33:41.699Z,54
2022-09-14T04:38:41.674Z,54
2022-09-14T04:43:41.697Z,54.2
2022-09-14T04:48:41.665Z,54.3
2022-09-14T04:53:41.730Z,54.4
2022-09-14T04:58:41.848Z,54.4
2022-09-14T05:03:41.709Z,54.4
2022-09-14T05:08:41.698Z,54.5
2022-09-14T05:13:43.370Z,54.7
2022-09-14T05:18:41.711Z,54.7
2022-09-14T05:23:41.725Z,54.7
2022-09-14T05:28:41.753Z,54.7
2022-09-14T05:33:41.718Z,54.7
2022-09-14T05:38:41.683Z,54.7
2022-09-14T05:43:41.733Z,54.9
2022-09-14T05:48:41.740Z,55.1
2022-09-14T05:53:41.778Z,55.1
2022-09-14T05:58:41.726Z,55.2
2022-09-14T06:03:41.735Z,55.2
2022-09-14T06:08:41.730Z,55.1
2022-09-14T06:13:41.742Z,55.1
2022-09-14T06:18:41.731Z,54.9
2022-09-14T06:23:41.741Z,54.8
2022-09-14T06:28:41.711Z,55.1
2022-09-14T06:33:41.700Z,55.2
2022-09-14T06:38:41.755Z,55.3
2022-09-14T06:43:41.744Z,55.3
2022-09-14T06:48:41.738Z,55.5
2022-09-14T06:53:41.744Z,55.9
2022-09-14T06:58:41.809Z,56.3
2022-09-14T07:03:41.752Z,56.6
2022-09-14T07:08:41.741Z,56.8
2022-09-14T07:13:41.771Z,56.9
2022-09-14T07:18:41.747Z,57
2022-09-14T07:23:41.766Z,57
2022-09-14T07:28:41.771Z,57
2022-09-14T07:33:41.764Z,56.9
2022-09-14T07:38:51.991Z,57
2022-09-14T07:43:41.762Z,56.7
2022-09-14T07:48:41.779Z,56.5
2022-09-14T07:53:41.831Z,56.4
2022-09-14T07:58:41.773Z,56.4
2022-09-14T08:03:41.785Z,56.4
2022-09-14T08:08:41.786Z,56.2
2022-09-14T08:13:41.739Z,56.2
2022-09-14T08:18:41.806Z,56.1
2022-09-14T08:23:41.788Z,56
2022-09-14T08:28:41.800Z,55.7
2022-09-14T08:33:41.794Z,55.6
2022-09-14T08:38:41.800Z,55.4
2022-09-14T08:43:41.802Z,55.3
2022-09-14T08:48:41.781Z,54.9
2022-09-14T08:53:41.933Z,54.7
2022-09-14T08:58:46.401Z,54.8
2022-09-14T09:03:41.839Z,54.7
2022-09-14T09:08:41.791Z,54.6
2022-09-14T09:13:41.786Z,54.5
2022-09-14T09:18:41.796Z,54.4
2022-09-14T09:23:41.800Z,54.3
2022-09-14T09:28:41.794Z,53.8
2022-09-14T09:33:41.812Z,53.9
2022-09-14T09:38:41.807Z,53.4
2022-09-14T09:43:49.198Z,53.1
2022-09-14T09:48:41.807Z,51.1
2022-09-14T09:53:41.839Z,51.8
2022-09-14T09:58:41.820Z,50.1
2022-09-14T10:03:41.812Z,51.1
2022-09-14T10:08:41.818Z,51
2022-09-14T10:13:41.832Z,50.1
2022-09-14T10:18:44.432Z,50
2022-09-14T10:23:41.912Z,49.2
2022-09-14T10:28:41.844Z,48.8
2022-09-14T10:33:41.819Z,46.9
2022-09-14T10:38:41.818Z,45.2
2022-09-14T10:43:41.800Z,45.6
2022-09-14T10:48:41.799Z,45.6
2022-09-14T10:53:41.863Z,44.4
2022-09-14T10:58:41.833Z,43
2022-09-14T11:03:45.810Z,42.6
2022-09-14T11:08:41.840Z,42
2022-09-14T11:13:41.850Z,42.7
2022-09-14T11:18:41.819Z,43
2022-09-14T11:23:41.842Z,42.4
2022-09-14T11:28:41.852Z,42.5
2022-09-14T11:33:41.845Z,41.3
2022-09-14T11:38:41.853Z,41.1
2022-09-14T11:43:41.837Z,40.9
2022-09-14T11:48:43.329Z,40.6
2022-09-14T11:53:41.857Z,40.1
2022-09-14T11:58:41.795Z,40.2
2022-09-14T12:03:41.874Z,40.4
2022-09-14T12:08:41.869Z,39.2
2022-09-14T12:13:41.852Z,40.1
2022-09-14T12:18:42.066Z,39.8
2022-09-14T12:23:41.876Z,40.1
2022-09-14T12:28:41.873Z,40.6
2022-09-14T12:33:41.939Z,40.5
2022-09-14T12:38:41.862Z,40.5
2022-09-14T12:43:41.893Z,40.5
2022-09-14T12:48:41.885Z,40.2
2022-09-14T12:53:41.927Z,39.9
2022-09-14T12:58:41.885Z,39.9
2022-09-14T13:03:41.911Z,39.5
2022-09-14T13:08:41.898Z,39
2022-09-14T13:13:41.897Z,38.7
2022-09-14T13:18:41.901Z,38.7
2022-09-14T13:23:41.888Z,38.1
2022-09-14T13:28:41.865Z,37.3
2022-09-14T13:33:41.903Z,37.7
2022-09-14T13:38:41.908Z,37.8
2022-09-14T13:43:41.878Z,38.5
2022-09-14T13:48:41.926Z,38.7
2022-09-14T13:53:42.002Z,38.8
2022-09-14T13:58:41.912Z,38.2
2022-09-14T14:03:41.963Z,37.6
2022-09-14T14:08:42.130Z,36.3
2022-09-14T14:13:41.899Z,36
2022-09-14T14:18:41.917Z,36.1
2022-09-14T14:23:56.609Z,35.3
2022-09-14T14:28:41.895Z,35.1
2022-09-14T14:33:41.891Z,35
2022-09-14T14:38:41.937Z,35
2022-09-14T14:43:41.931Z,35.2
2022-09-14T14:48:41.933Z,35.6
2022-09-14T14:53:41.943Z,35.8
2022-09-14T14:58:41.942Z,35.5
2022-09-14T15:03:41.994Z,35.7
2022-09-14T15:08:41.924Z,36.2
2022-09-14T15:13:41.963Z,36
2022-09-14T15:18:41.958Z,35.7
2022-09-14T15:23:41.960Z,35
2022-09-14T15:28:41.964Z,32.8
2022-09-14T15:33:41.934Z,34.3
2022-09-14T15:38:41.974Z,35.1
2022-09-14T15:43:41.969Z,33.7
2022-09-14T15:48:41.949Z,35
2022-09-14T15:53:42.004Z,34.8
2022-09-14T15:58:45.983Z,34.7
2022-09-14T16:03:41.975Z,35.1
2022-09-14T16:08:42.072Z,35.2
2022-09-14T16:13:41.947Z,35
2022-09-14T16:18:41.971Z,35
2022-09-14T16:23:41.993Z,34.9
2022-09-14T16:28:41.989Z,35
2022-09-14T16:33:41.950Z,35.2
2022-09-14T16:38:41.971Z,35.4
2022-09-14T16:43:42.000Z,35.5
2022-09-14T16:48:41.983Z,35.7
2022-09-14T16:53:41.999Z,35.7
2022-09-14T16:58:41.976Z,35.7
2022-09-14T17:03:42.064Z,35.5
2022-09-14T17:08:43.914Z,35.7
2022-09-14T17:13:41.963Z,36
2022-09-14T17:18:41.966Z,36.2
2022-09-14T17:23:42.010Z,36.5
2022-09-14T17:28:42.000Z,36.7
2022-09-14T17:33:42.008Z,36.9
2022-09-14T17:38:42.005Z,37.1
2022-09-14T17:43:42.011Z,37.2
2022-09-14T17:48:41.978Z,37.4
2022-09-14T17:53:42.009Z,37.7
2022-09-14T17:58:42.015Z,37.8
2022-09-14T18:03:42.056Z,37.9
2022-09-14T18:08:42.026Z,36.1
2022-09-14T18:13:42.044Z,38.2
2022-09-14T18:18:42.006Z,38.4
2022-09-14T18:23:42.029Z,38.5
2022-09-14T18:28:41.999Z,38.7
2022-09-14T18:33:42.023Z,39.3
2022-09-14T18:38:41.995Z,39.9
2022-09-14T18:43:42.042Z,40.5
2022-09-14T18:48:42.028Z,40.9
2022-09-14T18:53:42.049Z,41.3
2022-09-14T18:58:42.049Z,41.6
2022-09-14T19:03:42.020Z,41.8
2022-09-14T19:08:42.039Z,42.1
2022-09-14T19:13:41.981Z,42.4
2022-09-14T19:18:42.008Z,42.6
2022-09-14T19:23:42.026Z,42.8
2022-09-14T19:28:42.045Z,43.1
2022-09-14T19:33:44.657Z,43.4
2022-09-14T19:38:42.035Z,43.5
2022-09-14T19:43:42.026Z,43.8
2022-09-14T19:48:42.039Z,44
2022-09-14T19:53:42.086Z,44.3
2022-09-14T19:58:42.012Z,44.5
2022-09-14T20:03:42.031Z,44.9
2022-09-14T20:08:42.035Z,45.2
2022-09-14T20:13:42.045Z,45.4
2022-09-14T20:18:42.118Z,45.6
2022-09-14T20:23:52.612Z,45.8
2022-09-14T20:28:42.046Z,46.1
2022-09-14T20:33:42.024Z,46.3
2022-09-14T20:38:42.044Z,46.3
2022-09-14T20:43:42.028Z,46.3
2022-09-14T20:48:42.053Z,46.5
2022-09-14T20:53:42.092Z,46.7
2022-09-14T20:58:42.152Z,46.8
2022-09-14T21:03:42.114Z,46.8
2022-09-14T21:08:42.073Z,46.9
2022-09-14T21:13:42.055Z,47.1
2022-09-14T21:18:42.063Z,47.4
2022-09-14T21:23:42.048Z,47.4
2022-09-14T21:28:42.051Z,47.5
2022-09-14T21:33:42.051Z,47.8
2022-09-14T21:38:42.074Z,47.9
2022-09-14T21:43:42.067Z,48.1
2022-09-14T21:48:42.079Z,48
2022-09-14T21:53:42.082Z,48
2022-09-14T21:58:42.069Z,48
2022-09-14T22:03:42.057Z,47.8
2022-09-14T22:08:42.067Z,47.7
2022-09-14T22:13:42.075Z,47.8
2022-09-14T22:18:42.070Z,47.6
2022-09-14T22:23:42.087Z,47.7
2022-09-14T22:28:42.081Z,47.7
2022-09-14T22:33:42.082Z,47.6
2022-09-14T22:38:42.093Z,46.2
2022-09-14T22:43:42.099Z,47.4
2022-09-14T22:48:42.085Z,47.4
2022-09-14T22:53:42.107Z,47.4
2022-09-14T22:58:42.090Z,47.5
2022-09-14T23:03:42.108Z,46.3
2022-09-14T23:08:42.095Z,47.7
2022-09-14T23:13:42.095Z,47.7
2022-09-14T23:18:42.192Z,47.8
2022-09-14T23:23:42.117Z,47.9
2022-09-14T23:28:42.122Z,48
2022-09-14T23:33:42.063Z,45.9
2022-09-14T23:38:42.093Z,48
2022-09-14T23:43:42.094Z,48
2022-09-14T23:48:42.103Z,48
2022-09-14T23:53:42.142Z,48
2022-09-14T23:58:42.210Z,47.8
